createdAt,value
2019-03-03T00:01:48.262Z,25.80
2019-03-03T00:14:44.331Z,26.40
2019-03-03T00:17:21.555Z,26.30
2019-03-03T00:19:58.733Z,26.30
2019-03-03T00:22:35.877Z,26.20
2019-03-03T00:25:13.268Z,26.50
2019-03-03T00:27:50.390Z,25.90
2019-03-03T00:30:27.585Z,26.50
2019-03-03T00:33:04.716Z,26.70
2019-03-03T00:35:41.939Z,26.80
2019-03-03T00:38:39.790Z,27.00
2019-03-03T00:41:28.369Z,27.00
2019-03-03T00:44:34.627Z,26.80
2019-03-03T00:47:29.909Z,26.70
2019-03-03T00:50:25.822Z,26.60
2019-03-03T00:53:20.189Z,26.70
2019-03-03T00:56:04.116Z,26.60
2019-03-03T00:59:00.026Z,26.70
2019-03-03T01:10:31.429Z,27.30
2019-03-03T01:13:26.039Z,27.30
2019-03-03T01:16:16.619Z,26.70
2019-03-03T01:19:05.617Z,27.50
2019-03-03T01:25:07.744Z,27.70
2019-03-03T01:27:44.921Z,27.60
2019-03-03T01:32:56.834Z,27.40
2019-03-03T01:35:33.994Z,27.20
2019-03-03T01:38:11.245Z,27.40
2019-03-03T01:40:48.418Z,27.50
2019-03-03T01:46:00.370Z,27.80
2019-03-03T01:48:37.447Z,27.80
2019-03-03T01:58:58.535Z,27.80
2019-03-03T02:01:35.770Z,27.90
2019-03-03T02:04:13.092Z,28.10
2019-03-03T02:06:53.124Z,28.10
2019-03-03T02:09:30.364Z,28.20
2019-03-03T02:12:07.791Z,28.30
2019-03-03T02:14:44.977Z,28.30
2019-03-03T02:17:22.332Z,28.40
2019-03-03T02:19:59.670Z,28.50
2019-03-03T02:22:36.747Z,29.60
2019-03-03T02:25:14.051Z,28.70
2019-03-03T02:27:51.980Z,29.00
2019-03-03T02:30:29.152Z,27.10
2019-03-03T02:35:41.005Z,28.70
2019-03-03T02:38:23.607Z,29.40
2019-03-03T02:41:00.974Z,29.10
2019-03-03T02:43:48.837Z,28.80
2019-03-03T02:46:26.251Z,28.80
2019-03-03T02:49:05.743Z,28.80
2019-03-03T02:56:52.357Z,29.30
2019-03-03T03:04:41.285Z,29.10
2019-03-03T03:07:35.217Z,29.30
2019-03-03T03:10:22.014Z,29.10
2019-03-03T03:13:19.357Z,29.00
2019-03-03T03:19:03.620Z,30.30
2019-03-03T03:22:13.388Z,29.30
2019-03-03T03:24:56.157Z,29.40
2019-03-03T03:30:39.147Z,29.60
2019-03-03T03:33:45.633Z,29.80
2019-03-03T03:36:40.074Z,29.90
2019-03-03T03:39:24.280Z,29.50
2019-03-03T03:42:10.796Z,29.80
2019-03-03T03:45:11.115Z,29.90
2019-03-03T03:48:05.142Z,29.80
2019-03-03T03:50:56.389Z,29.60
2019-03-03T03:53:51.385Z,29.10
2019-03-03T03:56:41.305Z,30.10
2019-03-03T03:59:36.383Z,30.60
2019-03-03T04:07:54.599Z,31.00
2019-03-03T04:13:36.511Z,31.10
2019-03-03T04:16:20.433Z,30.90
2019-03-03T04:19:04.568Z,31.70
2019-03-03T04:22:04.148Z,31.50
2019-03-03T04:24:47.601Z,30.40
2019-03-03T04:27:40.208Z,31.20
2019-03-03T04:30:47.166Z,30.60
2019-03-03T04:36:49.116Z,30.30
2019-03-03T04:39:38.457Z,30.10
2019-03-03T04:42:35.911Z,30.20
2019-03-03T04:48:04.602Z,30.20
2019-03-03T04:50:59.086Z,30.10
2019-03-03T04:53:56.344Z,30.50
2019-03-03T04:56:41.090Z,30.70
2019-03-03T04:59:29.691Z,30.10
2019-03-03T05:02:32.199Z,30.00
2019-03-03T05:05:25.291Z,30.10
2019-03-03T05:11:15.297Z,30.00
2019-03-03T05:14:02.754Z,30.00
2019-03-03T05:16:49.003Z,29.90
2019-03-03T05:19:30.194Z,29.90
2019-03-03T05:22:07.312Z,30.20
2019-03-03T05:24:44.429Z,30.30
2019-03-03T05:27:22.623Z,29.90
2019-03-03T05:29:59.822Z,29.80
2019-03-03T05:32:36.974Z,30.00
2019-03-03T05:37:49.027Z,30.10
2019-03-03T05:40:26.072Z,29.70
2019-03-03T05:45:37.991Z,30.40
2019-03-03T05:48:15.130Z,29.50
2019-03-03T05:50:52.263Z,30.70
2019-03-03T05:53:29.461Z,29.80
2019-03-03T05:56:06.691Z,29.60
2019-03-03T05:58:43.791Z,29.50
2019-03-03T06:01:20.882Z,30.00
2019-03-03T06:06:32.757Z,29.50
2019-03-03T06:09:10.683Z,29.40
2019-03-03T06:14:22.629Z,29.40
2019-03-03T06:16:59.631Z,29.80
2019-03-03T06:19:36.675Z,29.80
2019-03-03T06:22:16.491Z,29.60
2019-03-03T06:24:53.591Z,29.10
2019-03-03T06:30:06.502Z,29.80
2019-03-03T06:37:53.131Z,29.40
2019-03-03T06:43:04.899Z,29.90
2019-03-03T06:45:42.032Z,29.40
2019-03-03T06:48:19.434Z,29.40
2019-03-03T06:50:56.535Z,29.40
2019-03-03T06:53:33.706Z,29.40
2019-03-03T06:56:10.872Z,29.50
2019-03-03T06:58:48.115Z,29.20
2019-03-03T07:01:25.234Z,29.10
2019-03-03T07:04:02.528Z,29.00
2019-03-03T07:06:40.189Z,29.10
2019-03-03T07:09:17.243Z,29.20
2019-03-03T07:11:54.385Z,28.70
2019-03-03T07:14:31.405Z,28.70
2019-03-03T07:17:08.570Z,28.60
2019-03-03T07:19:45.579Z,28.60
2019-03-03T07:22:22.702Z,28.90
2019-03-03T07:24:59.825Z,28.50
2019-03-03T07:30:14.026Z,28.40
2019-03-03T07:33:14.454Z,28.50
2019-03-03T07:35:51.690Z,28.50
2019-03-03T07:38:28.659Z,28.50
2019-03-03T07:41:07.142Z,28.70
2019-03-03T07:43:44.408Z,28.60
2019-03-03T07:46:21.606Z,28.30
2019-03-03T07:48:58.676Z,28.70
2019-03-03T07:51:38.108Z,28.70
2019-03-03T07:54:14.088Z,28.30
2019-03-03T07:56:53.091Z,27.90
2019-03-03T07:59:30.345Z,27.30
2019-03-03T08:04:42.054Z,27.40
2019-03-03T08:07:19.799Z,27.20
2019-03-03T08:09:58.553Z,27.00
2019-03-03T08:12:36.060Z,27.00
2019-03-03T08:15:14.667Z,27.20
2019-03-03T08:17:51.783Z,29.70
2019-03-03T08:20:29.007Z,26.80
2019-03-03T08:23:06.382Z,26.70
2019-03-03T08:25:43.481Z,26.60
2019-03-03T08:28:20.624Z,26.70
2019-03-03T08:30:58.171Z,26.50
2019-03-03T08:33:35.282Z,26.90
2019-03-03T08:36:12.711Z,26.40
2019-03-03T08:38:56.492Z,26.40
2019-03-03T08:41:34.870Z,26.60
2019-03-03T08:47:05.939Z,26.60
2019-03-03T08:49:58.333Z,26.60
2019-03-03T08:52:57.711Z,26.40
2019-03-03T08:58:39.718Z,26.60
2019-03-03T09:01:37.775Z,26.40
2019-03-03T09:07:29.326Z,26.30
2019-03-03T09:10:26.921Z,26.10
2019-03-03T09:13:20.614Z,26.10
2019-03-03T09:16:14.164Z,26.10
2019-03-03T09:19:14.579Z,26.10
2019-03-03T09:22:01.054Z,26.20
2019-03-03T09:24:58.413Z,26.10
2019-03-03T09:27:59.026Z,26.30
2019-03-03T09:30:52.263Z,26.00
2019-03-03T09:33:44.934Z,26.00
2019-03-03T09:36:19.634Z,26.00
2019-03-03T09:39:11.720Z,26.00
2019-03-03T09:42:01.869Z,26.00
2019-03-03T09:44:55.025Z,26.00
2019-03-03T09:47:49.740Z,25.90
2019-03-03T09:50:53.768Z,25.40
2019-03-03T09:53:51.390Z,25.90
2019-03-03T09:56:44.306Z,25.90
2019-03-03T09:59:53.890Z,25.90
2019-03-03T10:02:40.191Z,25.90
2019-03-03T10:05:47.708Z,25.70
2019-03-03T10:08:34.735Z,25.80
2019-03-03T10:11:32.013Z,25.70
2019-03-03T10:14:41.689Z,25.80
2019-03-03T10:17:45.400Z,25.80
2019-03-03T10:20:35.680Z,25.70
2019-03-03T10:23:28.914Z,25.70
2019-03-03T10:26:32.443Z,25.80
2019-03-03T10:29:30.633Z,25.70
2019-03-03T10:32:30.920Z,25.90
2019-03-03T10:35:25.411Z,25.80
2019-03-03T10:38:37.864Z,25.90
2019-03-03T10:41:33.420Z,25.80
2019-03-03T10:44:29.252Z,25.80
2019-03-03T10:47:24.791Z,25.80
2019-03-03T10:50:15.840Z,25.80
2019-03-03T10:53:06.330Z,25.70
2019-03-03T10:55:59.340Z,25.80
2019-03-03T10:58:59.788Z,25.70
2019-03-03T11:01:54.032Z,25.80
2019-03-03T11:04:39.019Z,25.90
2019-03-03T11:07:22.449Z,25.70
2019-03-03T11:10:17.239Z,25.60
2019-03-03T11:13:27.184Z,25.70
2019-03-03T11:16:21.776Z,25.50
2019-03-03T11:19:20.112Z,25.50
2019-03-03T11:22:13.259Z,25.60
2019-03-03T11:24:56.994Z,25.50
2019-03-03T11:27:41.871Z,25.60
2019-03-03T11:30:39.247Z,25.60
2019-03-03T11:33:44.527Z,25.80
2019-03-03T11:36:19.868Z,25.70
2019-03-03T11:39:14.437Z,25.80
2019-03-03T11:42:11.812Z,25.70
2019-03-03T11:45:20.095Z,25.60
2019-03-03T11:48:12.841Z,25.60
2019-03-03T11:51:03.835Z,25.70
2019-03-03T11:54:01.023Z,25.50
2019-03-03T11:56:53.842Z,25.40
2019-03-03T11:59:58.510Z,25.50
2019-03-03T12:02:53.579Z,25.40
2019-03-03T12:05:45.647Z,25.30
2019-03-03T12:08:38.233Z,25.30
2019-03-03T12:11:41.693Z,25.30
2019-03-03T12:14:51.420Z,25.30
2019-03-03T12:17:45.888Z,25.30
2019-03-03T12:20:28.921Z,25.30
2019-03-03T12:23:29.491Z,25.30
2019-03-03T12:26:16.682Z,25.30
2019-03-03T12:29:09.292Z,25.40
2019-03-03T12:31:57.663Z,25.10
2019-03-03T12:38:36.479Z,25.10
2019-03-03T12:41:34.632Z,25.10
2019-03-03T12:44:32.424Z,25.00
2019-03-03T12:47:46.771Z,25.00
2019-03-03T12:50:46.719Z,25.10
2019-03-03T12:53:38.393Z,25.00
2019-03-03T12:56:31.560Z,25.00
2019-03-03T12:59:16.400Z,24.90
2019-03-03T13:02:09.377Z,24.90
2019-03-03T13:05:04.519Z,24.70
2019-03-03T13:19:23.436Z,24.80
2019-03-03T13:25:10.207Z,24.60
2019-03-03T13:28:04.831Z,24.70
2019-03-03T13:30:49.468Z,24.50
2019-03-03T13:33:56.101Z,25.10
2019-03-03T13:37:00.093Z,24.90
2019-03-03T13:42:38.524Z,24.40
2019-03-03T13:45:17.204Z,24.80
2019-03-03T13:47:54.848Z,24.40
2019-03-03T14:11:11.076Z,25.10
2019-03-03T14:16:23.155Z,24.50
2019-03-03T14:21:35.763Z,24.40
2019-03-03T14:29:24.017Z,24.00
2019-03-03T14:32:01.368Z,24.60
2019-03-03T14:52:42.718Z,24.40
2019-03-03T15:29:00.370Z,24.10
2019-03-03T15:31:38.080Z,24.20
2019-03-03T15:36:50.349Z,23.90
2019-03-03T15:47:13.319Z,24.00
2019-03-03T16:02:44.680Z,23.80
2019-03-03T16:10:32.150Z,23.90
2019-03-03T16:39:01.750Z,23.60
2019-03-03T16:46:48.793Z,23.80
2019-03-03T17:28:13.059Z,24.10
2019-03-03T18:04:32.540Z,23.70
2019-03-03T18:09:44.151Z,24.00
2019-03-03T18:12:21.219Z,24.00
2019-03-03T18:14:58.310Z,23.80
2019-03-03T18:17:35.432Z,23.30
2019-03-03T18:20:13.495Z,23.60
2019-03-03T18:22:50.741Z,23.60
2019-03-03T18:25:28.145Z,23.70
2019-03-03T18:28:05.328Z,23.90
2019-03-03T18:35:52.308Z,23.60
2019-03-03T18:38:29.399Z,23.40
2019-03-03T18:41:06.475Z,23.50
2019-03-03T18:46:18.559Z,23.40
2019-03-03T18:48:55.719Z,23.50
2019-03-03T18:51:32.999Z,23.40
2019-03-03T18:54:10.204Z,23.50
2019-03-03T18:56:48.705Z,23.50
2019-03-03T18:59:25.758Z,23.30
2019-03-03T19:02:03.065Z,23.40
2019-03-03T19:07:15.910Z,23.50
2019-03-03T19:09:53.243Z,23.70
2019-03-03T19:12:31.770Z,23.90
2019-03-03T19:15:09.084Z,23.30
2019-03-03T19:17:46.286Z,23.50
2019-03-03T19:22:58.646Z,23.60
2019-03-03T19:25:35.836Z,23.40
2019-03-03T19:28:12.938Z,23.30
2019-03-03T19:30:49.943Z,23.40
2019-03-03T19:33:30.578Z,23.50
2019-03-03T19:36:07.730Z,23.50
2019-03-03T19:38:45.082Z,23.50
2019-03-03T19:41:22.152Z,23.50
2019-03-03T19:43:59.481Z,23.50
2019-03-03T19:46:36.798Z,23.30
2019-03-03T19:49:13.885Z,23.40
2019-03-03T19:51:51.163Z,23.40
2019-03-03T19:54:28.215Z,23.40
2019-03-03T19:57:05.339Z,23.40
2019-03-03T19:59:42.367Z,23.40
2019-03-03T20:02:19.481Z,23.60
2019-03-03T20:04:57.942Z,23.40
2019-03-03T20:07:34.955Z,23.40
2019-03-03T20:10:13.186Z,23.50
2019-03-03T20:12:50.727Z,23.50
2019-03-03T20:15:35.014Z,23.50
2019-03-03T20:18:15.531Z,23.50
2019-03-03T20:20:54.128Z,23.50
2019-03-03T20:23:31.443Z,23.50
2019-03-03T20:26:08.759Z,24.00
2019-03-03T20:28:46.102Z,23.60
2019-03-03T20:31:23.390Z,23.40
2019-03-03T20:34:00.540Z,23.50
2019-03-03T20:36:38.504Z,23.40
2019-03-03T20:39:16.623Z,23.40
2019-03-03T20:41:53.658Z,23.50
2019-03-03T20:44:30.697Z,23.50
2019-03-03T20:47:09.510Z,24.00
2019-03-03T20:49:46.674Z,23.50
2019-03-03T20:52:23.728Z,23.50
2019-03-03T20:55:00.863Z,23.50
2019-03-03T20:57:40.823Z,23.60
2019-03-03T21:00:25.591Z,23.60
2019-03-03T21:03:03.407Z,23.60
2019-03-03T21:05:40.707Z,23.60
2019-03-03T21:08:17.862Z,23.60
2019-03-03T21:10:55.063Z,23.70
2019-03-03T21:13:32.231Z,23.60
2019-03-03T21:16:09.383Z,23.60
2019-03-03T21:18:46.507Z,23.60
2019-03-03T21:21:23.892Z,23.70
2019-03-03T21:24:01.087Z,23.80
2019-03-03T21:26:38.244Z,23.90
2019-03-03T21:29:15.369Z,23.90
2019-03-03T21:31:52.484Z,24.00
2019-03-03T21:34:29.834Z,24.00
2019-03-03T21:37:06.824Z,24.00
2019-03-03T21:39:44.019Z,24.00
2019-03-03T21:42:21.202Z,24.30
2019-03-03T21:44:58.488Z,23.90
2019-03-03T21:47:35.589Z,24.00
2019-03-03T21:50:13.939Z,24.00
2019-03-03T21:52:51.294Z,24.10
2019-03-03T21:55:28.663Z,24.10
2019-03-03T21:58:05.783Z,24.20
2019-03-03T22:03:18.560Z,24.60
2019-03-03T22:05:55.694Z,24.50
2019-03-03T22:08:32.797Z,24.30
2019-03-03T22:13:44.775Z,24.70
2019-03-03T22:21:31.339Z,25.00
2019-03-03T22:24:08.548Z,24.70
2019-03-03T22:26:45.658Z,24.50
2019-03-03T22:29:22.826Z,24.70
2019-03-03T22:32:00.001Z,24.70
2019-03-03T22:34:37.547Z,24.30
2019-03-03T22:37:14.739Z,25.40
2019-03-03T22:42:26.461Z,24.80
2019-03-03T22:47:38.070Z,25.00
2019-03-03T22:52:50.116Z,25.30
2019-03-03T22:55:27.392Z,25.10
2019-03-03T22:58:04.627Z,25.50
2019-03-03T23:00:50.731Z,25.30
2019-03-03T23:03:38.011Z,25.40
2019-03-03T23:06:26.876Z,25.20
2019-03-03T23:12:28.066Z,25.90
2019-03-03T23:15:38.394Z,25.50
2019-03-03T23:18:47.032Z,26.40
2019-03-03T23:21:54.186Z,26.00
2019-03-03T23:25:04.320Z,25.90
2019-03-03T23:27:41.456Z,26.00
2019-03-03T23:30:18.941Z,26.00
2019-03-03T23:35:31.000Z,26.30
2019-03-03T23:38:08.182Z,26.20
2019-03-03T23:40:45.287Z,26.30
2019-03-03T23:43:22.687Z,26.20
2019-03-03T23:48:34.504Z,26.20
2019-03-03T23:51:11.631Z,26.40
2019-03-03T23:53:50.106Z,26.70
2019-03-03T23:56:27.181Z,26.60
2019-03-03T23:59:05.622Z,26.70
